createdAt,value
2019-06-08T00:01:25.609Z,57.10
2019-06-08T00:03:55.960Z,57.30
2019-06-08T00:06:25.997Z,57.40
2019-06-08T00:08:56.114Z,57.60
2019-06-08T00:11:26.154Z,57.20
2019-06-08T00:13:56.609Z,58.00
2019-06-08T00:16:26.641Z,58.00
2019-06-08T00:18:56.842Z,57.70
2019-06-08T00:21:26.947Z,57.70
2019-06-08T00:23:56.994Z,57.50
2019-06-08T00:26:27.116Z,57.30
2019-06-08T00:28:57.536Z,57.30
2019-06-08T00:31:27.606Z,57.40
2019-06-08T00:33:57.713Z,57.60
2019-06-08T00:36:27.772Z,57.60
2019-06-08T00:38:57.886Z,57.70
2019-06-08T00:41:28.329Z,57.70
2019-06-08T00:43:58.732Z,57.80
2019-06-08T00:46:28.779Z,57.80
2019-06-08T00:48:58.821Z,57.40
2019-06-08T00:51:30.012Z,57.80
2019-06-08T00:54:00.195Z,57.60
2019-06-08T00:56:30.242Z,57.80
2019-06-08T00:59:00.364Z,57.70
2019-06-08T01:01:30.883Z,57.80
2019-06-08T01:04:01.124Z,58.00
2019-06-08T01:06:31.235Z,58.10
2019-06-08T01:09:01.353Z,58.20
2019-06-08T01:11:33.118Z,58.30
2019-06-08T01:14:04.558Z,58.30
2019-06-08T01:16:35.033Z,58.40
2019-06-08T01:19:05.555Z,58.40
2019-06-08T01:21:35.679Z,58.40
2019-06-08T01:24:06.207Z,58.60
2019-06-08T01:26:36.314Z,58.30
2019-06-08T01:29:06.501Z,58.30
2019-06-08T01:31:36.626Z,58.70
2019-06-08T01:34:06.995Z,59.10
2019-06-08T01:36:37.035Z,59.10
2019-06-08T01:39:07.825Z,59.30
2019-06-08T01:41:38.014Z,59.30
2019-06-08T01:44:08.445Z,59.10
2019-06-08T01:46:38.766Z,59.00
2019-06-08T01:49:08.884Z,59.20
2019-06-08T01:51:39.361Z,59.30
2019-06-08T01:54:09.466Z,59.50
2019-06-08T01:56:39.665Z,59.50
2019-06-08T01:59:09.760Z,59.70
2019-06-08T02:01:39.799Z,60.00
2019-06-08T02:04:09.848Z,60.10
2019-06-08T02:06:40.301Z,60.30
2019-06-08T02:09:10.829Z,60.40
2019-06-08T02:11:40.894Z,60.60
2019-06-08T02:14:10.929Z,60.70
2019-06-08T02:16:41.418Z,61.40
2019-06-08T02:19:11.475Z,60.30
2019-06-08T02:21:41.587Z,60.20
2019-06-08T02:24:12.363Z,60.60
2019-06-08T02:26:42.471Z,60.70
2019-06-08T02:29:12.514Z,60.60
2019-06-08T02:31:42.925Z,60.90
2019-06-08T02:34:12.972Z,61.20
2019-06-08T02:36:44.187Z,61.40
2019-06-08T02:39:14.541Z,61.30
2019-06-08T02:41:44.589Z,61.30
2019-06-08T02:44:14.964Z,61.40
2019-06-08T02:46:45.061Z,61.20
2019-06-08T02:49:15.167Z,61.30
2019-06-08T02:51:46.463Z,61.40
2019-06-08T02:54:16.756Z,61.50
2019-06-08T02:56:49.438Z,61.80
2019-06-08T02:59:23.058Z,61.80
2019-06-08T03:01:55.482Z,61.90
2019-06-08T03:04:27.430Z,62.10
2019-06-08T03:06:59.484Z,62.40
2019-06-08T03:09:30.692Z,62.80
2019-06-08T03:12:06.465Z,63.10
2019-06-08T03:14:37.574Z,63.30
2019-06-08T03:17:08.250Z,63.70
2019-06-08T03:19:39.885Z,63.80
2019-06-08T03:22:11.093Z,63.90
2019-06-08T03:24:41.668Z,64.00
2019-06-08T03:27:13.190Z,63.90
2019-06-08T03:29:43.959Z,63.90
2019-06-08T03:32:14.335Z,63.90
2019-06-08T03:34:53.953Z,64.00
2019-06-08T03:37:16.012Z,63.90
2019-06-08T03:39:46.149Z,63.80
2019-06-08T03:42:17.173Z,64.00
2019-06-08T03:44:47.204Z,64.10
2019-06-08T03:47:17.262Z,64.30
2019-06-08T03:49:54.518Z,64.30
2019-06-08T03:52:19.036Z,64.40
2019-06-08T03:54:49.070Z,64.40
2019-06-08T03:57:19.119Z,64.40
2019-06-08T03:59:49.154Z,64.50
2019-06-08T04:02:19.349Z,64.50
2019-06-08T04:04:50.027Z,64.30
2019-06-08T04:07:20.157Z,64.30
2019-06-08T04:09:50.575Z,64.50
2019-06-08T04:12:20.601Z,64.50
2019-06-08T04:14:50.648Z,64.50
2019-06-08T04:17:20.773Z,64.60
2019-06-08T04:20:09.425Z,64.70
2019-06-08T04:22:22.573Z,64.70
2019-06-08T04:24:52.683Z,64.80
2019-06-08T04:27:22.728Z,64.60
2019-06-08T04:29:52.766Z,64.60
2019-06-08T04:32:23.892Z,64.70
2019-06-08T04:34:53.940Z,64.50
2019-06-08T04:37:24.011Z,64.50
2019-06-08T04:39:54.050Z,64.00
2019-06-08T04:42:24.486Z,63.90
2019-06-08T04:44:54.921Z,63.80
2019-06-08T04:47:25.389Z,63.70
2019-06-08T04:49:55.863Z,63.90
2019-06-08T04:52:26.118Z,64.00
2019-06-08T04:54:56.281Z,63.90
2019-06-08T04:57:26.322Z,63.90
2019-06-08T04:59:56.434Z,63.70
2019-06-08T05:02:26.539Z,63.50
2019-06-08T05:04:56.578Z,63.50
2019-06-08T05:07:26.632Z,63.60
2019-06-08T05:09:57.025Z,63.00
2019-06-08T05:12:27.072Z,62.60
2019-06-08T05:14:57.479Z,62.20
2019-06-08T05:17:27.582Z,62.10
2019-06-08T05:19:57.953Z,61.60
2019-06-08T05:22:27.999Z,61.60
2019-06-08T05:24:58.502Z,61.80
2019-06-08T05:27:30.225Z,61.50
2019-06-08T05:30:00.282Z,61.20
2019-06-08T05:32:30.322Z,61.00
2019-06-08T05:35:00.354Z,61.40
2019-06-08T05:37:30.808Z,60.30
2019-06-08T05:40:00.846Z,60.00
2019-06-08T05:42:30.898Z,59.60
2019-06-08T05:45:00.951Z,59.90
2019-06-08T05:47:30.986Z,59.20
2019-06-08T05:50:01.371Z,59.10
2019-06-08T05:52:31.831Z,59.00
2019-06-08T05:55:01.950Z,58.90
2019-06-08T05:57:32.061Z,58.70
2019-06-08T06:00:08.875Z,58.20
2019-06-08T06:02:33.788Z,58.10
2019-06-08T06:05:05.788Z,58.00
2019-06-08T06:07:35.930Z,57.40
2019-06-08T06:10:06.226Z,57.20
2019-06-08T06:12:36.271Z,57.10
2019-06-08T06:15:07.061Z,56.80
2019-06-08T06:17:37.401Z,56.20
2019-06-08T06:20:09.346Z,55.70
2019-06-08T06:22:39.402Z,55.40
2019-06-08T06:25:10.395Z,55.00
2019-06-08T06:27:41.367Z,54.70
2019-06-08T06:30:12.327Z,54.60
2019-06-08T06:32:43.720Z,54.10
2019-06-08T06:35:14.257Z,54.00
2019-06-08T06:37:44.398Z,53.50
2019-06-08T06:40:15.856Z,53.50
2019-06-08T06:42:46.013Z,53.40
2019-06-08T06:45:16.421Z,53.00
2019-06-08T06:47:46.572Z,52.90
2019-06-08T06:50:17.181Z,52.70
2019-06-08T06:52:48.508Z,52.30
2019-06-08T06:55:19.027Z,52.00
2019-06-08T06:57:49.488Z,51.60
2019-06-08T07:00:30.645Z,52.10
2019-06-08T07:03:01.695Z,51.80
2019-06-08T07:05:32.122Z,51.30
2019-06-08T07:08:02.206Z,51.90
2019-06-08T07:10:32.238Z,51.10
2019-06-08T07:13:02.379Z,50.60
2019-06-08T07:15:41.182Z,50.60
2019-06-08T07:18:04.492Z,50.10
2019-06-08T07:20:34.607Z,50.50
2019-06-08T07:23:05.026Z,48.80
2019-06-08T07:25:35.055Z,49.10
2019-06-08T07:28:05.250Z,48.30
2019-06-08T07:30:35.692Z,48.20
2019-06-08T07:33:05.739Z,47.50
2019-06-08T07:35:35.855Z,47.30
2019-06-08T07:38:06.123Z,46.80
2019-06-08T07:40:36.218Z,46.80
2019-06-08T07:43:06.361Z,46.30
2019-06-08T07:45:36.859Z,46.20
2019-06-08T07:48:07.074Z,46.20
2019-06-08T07:50:37.572Z,45.70
2019-06-08T07:53:07.662Z,45.40
2019-06-08T07:55:37.695Z,45.30
2019-06-08T07:58:08.127Z,45.40
2019-06-08T08:00:38.180Z,45.10
2019-06-08T08:03:08.229Z,44.80
2019-06-08T08:05:38.698Z,44.80
2019-06-08T08:08:08.878Z,44.60
2019-06-08T08:10:38.917Z,44.30
2019-06-08T08:13:09.106Z,44.60
2019-06-08T08:15:39.228Z,44.00
2019-06-08T08:18:09.266Z,44.20
2019-06-08T08:20:39.710Z,43.60
2019-06-08T08:23:09.758Z,43.50
2019-06-08T08:25:40.952Z,43.30
2019-06-08T08:28:10.988Z,43.60
2019-06-08T08:30:41.036Z,43.00
2019-06-08T08:33:11.444Z,43.20
2019-06-08T08:35:41.545Z,42.90
2019-06-08T08:38:11.589Z,42.60
2019-06-08T08:40:42.879Z,42.30
2019-06-08T08:43:12.993Z,42.00
2019-06-08T08:45:43.351Z,41.40
2019-06-08T08:48:24.555Z,41.90
2019-06-08T08:50:45.066Z,41.50
2019-06-08T08:53:15.118Z,41.50
2019-06-08T08:55:47.936Z,41.70
2019-06-08T08:58:19.106Z,42.00
2019-06-08T09:00:50.927Z,41.60
2019-06-08T09:03:28.703Z,41.30
2019-06-08T09:05:53.802Z,41.40
2019-06-08T09:08:24.721Z,41.30
2019-06-08T09:10:56.104Z,41.20
2019-06-08T09:13:28.121Z,41.30
2019-06-08T09:16:02.352Z,41.40
2019-06-08T09:18:30.856Z,41.00
2019-06-08T09:21:02.806Z,41.10
2019-06-08T09:23:33.087Z,41.20
2019-06-08T09:26:08.943Z,41.30
2019-06-08T09:28:35.311Z,41.50
2019-06-08T09:31:08.261Z,41.40
2019-06-08T09:33:38.850Z,41.10
2019-06-08T09:36:09.185Z,41.30
2019-06-08T09:38:39.220Z,40.90
2019-06-08T09:41:09.348Z,40.90
2019-06-08T09:43:39.383Z,40.70
2019-06-08T09:46:09.602Z,40.80
2019-06-08T09:48:39.843Z,40.50
2019-06-08T09:51:09.981Z,40.90
2019-06-08T09:53:41.631Z,40.80
2019-06-08T09:56:12.434Z,40.50
2019-06-08T09:58:42.494Z,40.30
2019-06-08T10:01:12.843Z,40.20
2019-06-08T10:03:42.889Z,40.70
2019-06-08T10:06:13.315Z,39.20
2019-06-08T10:08:43.750Z,39.70
2019-06-08T10:11:13.783Z,40.10
2019-06-08T10:13:43.871Z,41.10
2019-06-08T10:16:14.222Z,40.70
2019-06-08T10:18:44.257Z,41.20
2019-06-08T10:21:14.369Z,41.30
2019-06-08T10:23:44.481Z,41.40
2019-06-08T10:26:14.600Z,41.50
2019-06-08T10:28:45.010Z,41.10
2019-06-08T10:31:17.460Z,41.00
2019-06-08T10:33:48.190Z,40.80
2019-06-08T10:36:18.482Z,40.90
2019-06-08T10:38:48.579Z,40.90
2019-06-08T10:41:21.737Z,41.00
2019-06-08T10:43:50.365Z,41.00
2019-06-08T10:46:21.108Z,41.50
2019-06-08T10:48:51.277Z,41.40
2019-06-08T10:51:21.725Z,41.50
2019-06-08T10:53:53.248Z,41.90
2019-06-08T10:56:23.436Z,41.90
2019-06-08T10:58:53.477Z,41.50
2019-06-08T11:01:23.544Z,41.50
2019-06-08T11:03:53.685Z,41.80
2019-06-08T11:06:24.180Z,41.80
2019-06-08T11:08:54.365Z,42.20
2019-06-08T11:11:24.749Z,42.30
2019-06-08T11:13:57.834Z,42.40
2019-06-08T11:16:28.714Z,42.10
2019-06-08T11:19:00.430Z,42.00
2019-06-08T11:21:30.393Z,42.00
2019-06-08T11:24:07.623Z,42.60
2019-06-08T11:26:32.576Z,41.90
2019-06-08T11:29:02.993Z,41.90
2019-06-08T11:31:33.738Z,41.90
2019-06-08T11:34:04.057Z,42.00
2019-06-08T11:36:34.295Z,41.20
2019-06-08T11:39:09.097Z,41.60
2019-06-08T11:41:38.158Z,41.80
2019-06-08T11:44:12.514Z,42.00
2019-06-08T11:46:42.600Z,41.90
2019-06-08T11:49:14.841Z,41.90
2019-06-08T11:51:43.703Z,42.00
2019-06-08T11:54:31.002Z,42.00
2019-06-08T11:56:48.098Z,42.10
2019-06-08T11:59:18.931Z,42.30
2019-06-08T12:01:50.514Z,42.00
2019-06-08T12:04:20.704Z,42.40
2019-06-08T12:06:50.784Z,41.90
2019-06-08T12:09:20.841Z,42.20
2019-06-08T12:11:51.256Z,42.40
2019-06-08T12:14:21.292Z,41.90
2019-06-08T12:16:51.343Z,42.00
2019-06-08T12:19:21.394Z,41.70
2019-06-08T12:21:51.843Z,41.90
2019-06-08T12:24:21.882Z,42.10
2019-06-08T12:26:58.658Z,41.60
2019-06-08T12:29:23.662Z,41.60
2019-06-08T12:31:53.702Z,41.90
2019-06-08T12:34:23.777Z,40.60
2019-06-08T12:36:53.816Z,41.30
2019-06-08T12:39:23.861Z,41.20
2019-06-08T12:41:53.910Z,41.80
2019-06-08T12:44:26.179Z,42.10
2019-06-08T12:46:55.614Z,42.20
2019-06-08T12:49:25.650Z,42.20
2019-06-08T12:51:58.102Z,41.10
2019-06-08T12:54:28.369Z,41.60
2019-06-08T12:57:00.759Z,40.00
2019-06-08T12:59:30.210Z,39.80
2019-06-08T13:02:00.257Z,40.00
2019-06-08T13:04:30.299Z,39.90
2019-06-08T13:07:00.758Z,39.70
2019-06-08T13:09:30.792Z,40.40
2019-06-08T13:12:00.843Z,40.30
2019-06-08T13:14:30.958Z,40.60
2019-06-08T13:17:01.343Z,40.70
2019-06-08T13:19:32.549Z,40.10
2019-06-08T13:22:02.674Z,40.30
2019-06-08T13:24:32.785Z,40.80
2019-06-08T13:27:02.819Z,41.40
2019-06-08T13:29:33.271Z,42.10
2019-06-08T13:32:03.805Z,40.80
2019-06-08T13:34:33.842Z,41.00
2019-06-08T13:37:03.880Z,40.70
2019-06-08T13:39:33.998Z,41.00
2019-06-08T13:42:04.179Z,41.20
2019-06-08T13:44:34.606Z,41.40
2019-06-08T13:47:04.708Z,40.90
2019-06-08T13:49:35.059Z,40.50
2019-06-08T13:52:07.785Z,40.20
2019-06-08T13:54:38.178Z,41.20
2019-06-08T13:57:08.633Z,40.50
2019-06-08T13:59:39.083Z,40.40
2019-06-08T14:02:10.558Z,41.00
2019-06-08T14:04:40.748Z,40.70
2019-06-08T14:07:10.791Z,40.50
2019-06-08T14:09:41.231Z,40.20
2019-06-08T14:12:11.265Z,40.60
2019-06-08T14:14:41.386Z,39.90
2019-06-08T14:17:11.498Z,39.60
2019-06-08T14:19:41.911Z,39.70
2019-06-08T14:22:12.005Z,39.80
2019-06-08T14:24:42.060Z,39.60
2019-06-08T14:27:12.171Z,39.30
2019-06-08T14:29:42.281Z,39.10
2019-06-08T14:32:12.723Z,39.10
2019-06-08T14:34:42.837Z,38.60
2019-06-08T14:37:12.893Z,37.80
2019-06-08T14:39:43.377Z,37.20
2019-06-08T14:42:13.807Z,36.70
2019-06-08T14:44:43.922Z,37.40
2019-06-08T14:47:14.372Z,38.20
2019-06-08T14:49:45.669Z,38.30
2019-06-08T14:52:15.845Z,38.90
2019-06-08T14:54:48.182Z,39.30
2019-06-08T14:57:18.191Z,37.70
2019-06-08T14:59:50.334Z,38.40
2019-06-08T15:02:21.236Z,38.50
2019-06-08T15:04:51.363Z,38.00
2019-06-08T15:07:23.297Z,38.30
2019-06-08T15:09:53.062Z,37.50
2019-06-08T15:12:23.543Z,37.50
2019-06-08T15:14:55.031Z,38.00
2019-06-08T15:17:26.493Z,38.30
2019-06-08T15:19:58.561Z,38.80
2019-06-08T15:22:30.554Z,38.00
2019-06-08T15:25:00.696Z,37.60
2019-06-08T15:27:33.221Z,37.50
2019-06-08T15:30:02.463Z,37.40
2019-06-08T15:32:35.513Z,37.30
2019-06-08T15:35:08.156Z,37.20
2019-06-08T15:37:40.954Z,37.10
2019-06-08T15:40:10.712Z,36.10
2019-06-08T15:42:41.814Z,35.50
2019-06-08T15:45:12.509Z,34.70
2019-06-08T15:47:42.546Z,36.30
2019-06-08T15:50:12.791Z,35.60
2019-06-08T15:52:43.089Z,36.00
2019-06-08T15:55:13.201Z,36.30
2019-06-08T15:57:44.854Z,36.90
2019-06-08T16:00:18.484Z,36.70
2019-06-08T16:02:48.661Z,36.80
2019-06-08T16:05:18.999Z,36.20
2019-06-08T16:07:50.513Z,36.20
2019-06-08T16:10:20.538Z,36.40
2019-06-08T16:12:51.644Z,36.00
2019-06-08T16:15:21.688Z,36.10
2019-06-08T16:17:51.795Z,35.30
2019-06-08T16:20:21.826Z,36.50
2019-06-08T16:22:51.862Z,36.10
2019-06-08T16:25:21.885Z,36.10
2019-06-08T16:27:51.930Z,36.20
2019-06-08T16:30:22.445Z,35.90
2019-06-08T16:32:52.486Z,36.30
2019-06-08T16:35:22.590Z,36.60
2019-06-08T16:37:52.636Z,36.60
2019-06-08T16:40:22.674Z,36.20
2019-06-08T16:42:53.042Z,36.30
2019-06-08T16:45:23.142Z,34.50
2019-06-08T16:47:53.241Z,34.90
2019-06-08T16:50:24.707Z,35.10
2019-06-08T16:52:55.371Z,35.70
2019-06-08T16:55:25.471Z,36.40
2019-06-08T16:57:55.521Z,36.50
2019-06-08T17:00:37.138Z,36.60
2019-06-08T17:02:57.416Z,35.90
2019-06-08T17:05:27.425Z,36.40
2019-06-08T17:07:57.665Z,36.20
2019-06-08T17:10:27.664Z,36.80
2019-06-08T17:12:57.724Z,36.80
2019-06-08T17:15:27.843Z,35.80
2019-06-08T17:17:57.947Z,36.70
2019-06-08T17:20:28.055Z,37.00
2019-06-08T17:22:58.088Z,37.00
2019-06-08T17:25:28.179Z,37.30
2019-06-08T17:27:58.219Z,36.60
2019-06-08T17:30:28.268Z,36.60
2019-06-08T17:32:58.313Z,37.00
2019-06-08T17:35:28.741Z,38.20
2019-06-08T17:37:58.775Z,37.30
2019-06-08T17:40:28.955Z,38.40
2019-06-08T17:42:58.988Z,37.60
2019-06-08T17:45:29.327Z,37.60
2019-06-08T17:47:59.361Z,37.40
2019-06-08T17:50:29.470Z,37.00
2019-06-08T17:52:59.988Z,38.30
2019-06-08T17:55:30.339Z,39.50
2019-06-08T17:58:00.442Z,40.00
2019-06-08T18:00:30.566Z,40.40
2019-06-08T18:03:00.990Z,40.50
2019-06-08T18:05:32.206Z,40.80
2019-06-08T18:08:02.657Z,41.10
2019-06-08T18:10:33.759Z,41.80
2019-06-08T18:13:04.052Z,42.30
2019-06-08T18:15:34.119Z,42.30
2019-06-08T18:18:04.670Z,42.70
2019-06-08T18:20:36.863Z,43.10
2019-06-08T18:23:08.140Z,43.20
2019-06-08T18:25:40.251Z,43.70
2019-06-08T18:28:13.305Z,44.00
2019-06-08T18:30:44.710Z,44.30
2019-06-08T18:33:13.850Z,44.90
2019-06-08T18:35:44.893Z,45.00
2019-06-08T18:38:17.774Z,45.00
2019-06-08T18:40:48.388Z,44.90
2019-06-08T18:43:18.984Z,45.10
2019-06-08T18:45:49.977Z,45.30
2019-06-08T18:48:20.084Z,45.40
2019-06-08T18:50:51.275Z,45.50
2019-06-08T18:53:21.321Z,46.10
2019-06-08T18:55:51.425Z,46.30
2019-06-08T18:58:24.977Z,46.30
2019-06-08T19:00:53.814Z,46.50
2019-06-08T19:03:24.339Z,46.50
2019-06-08T19:05:54.443Z,46.80
2019-06-08T19:08:27.851Z,46.80
2019-06-08T19:10:57.972Z,47.10
2019-06-08T19:13:28.605Z,46.90
2019-06-08T19:15:59.894Z,46.90
2019-06-08T19:18:30.054Z,47.10
2019-06-08T19:21:00.081Z,47.00
2019-06-08T19:23:30.119Z,46.90
2019-06-08T19:26:00.510Z,47.20
2019-06-08T19:28:36.398Z,47.20
2019-06-08T19:31:02.811Z,47.10
2019-06-08T19:33:33.366Z,47.30
2019-06-08T19:36:03.545Z,47.40
2019-06-08T19:38:33.895Z,47.60
2019-06-08T19:41:04.010Z,47.50
2019-06-08T19:43:34.406Z,47.70
2019-06-08T19:46:07.093Z,47.90
2019-06-08T19:48:39.243Z,48.30
2019-06-08T19:51:08.701Z,47.50
2019-06-08T19:53:44.402Z,47.80
2019-06-08T19:56:11.454Z,47.80
2019-06-08T19:58:55.393Z,47.50
2019-06-08T20:01:13.159Z,47.60
2019-06-08T20:03:43.185Z,47.30
2019-06-08T20:06:14.368Z,47.40
2019-06-08T20:08:45.103Z,47.60
2019-06-08T20:11:17.189Z,47.80
2019-06-08T20:13:49.703Z,48.00
2019-06-08T20:19:24.537Z,48.10
2019-06-08T20:21:54.579Z,47.90
2019-06-08T20:24:24.609Z,48.20
2019-06-08T20:26:54.843Z,47.90
2019-06-08T20:29:27.941Z,48.10
2019-06-08T20:31:58.233Z,48.10
2019-06-08T20:34:28.384Z,47.70
2019-06-08T20:37:01.301Z,47.60
2019-06-08T20:39:30.436Z,47.30
2019-06-08T20:42:00.461Z,47.50
2019-06-08T20:44:30.509Z,47.90
2019-06-08T20:47:00.899Z,47.90
2019-06-08T20:49:30.927Z,48.00
2019-06-08T20:52:01.038Z,48.90
2019-06-08T20:54:31.088Z,48.50
2019-06-08T20:57:01.686Z,48.10
2019-06-08T20:59:34.217Z,48.50
2019-06-08T21:02:03.840Z,48.80
2019-06-08T21:04:33.873Z,48.60
2019-06-08T21:07:03.971Z,48.10
2019-06-08T21:09:34.008Z,47.80
2019-06-08T21:12:04.213Z,48.00
2019-06-08T21:14:34.256Z,47.70
2019-06-08T21:17:04.295Z,47.50
2019-06-08T21:19:35.397Z,46.60
2019-06-08T21:22:08.021Z,46.60
2019-06-08T21:24:37.268Z,46.20
2019-06-08T21:27:08.212Z,46.50
2019-06-08T21:29:47.746Z,46.30
2019-06-08T21:32:12.005Z,46.60
2019-06-08T21:34:42.382Z,46.90
2019-06-08T21:37:12.414Z,47.40
2019-06-08T21:39:42.462Z,47.10
2019-06-08T21:42:12.569Z,47.60
2019-06-08T21:44:42.615Z,47.80
2019-06-08T21:47:13.085Z,47.80
2019-06-08T21:49:43.187Z,48.00
2019-06-08T21:52:13.635Z,47.80
2019-06-08T21:54:43.679Z,47.90
2019-06-08T21:57:13.792Z,48.10
2019-06-08T21:59:43.826Z,48.10
2019-06-08T22:02:14.015Z,48.20
2019-06-08T22:04:44.115Z,48.40
2019-06-08T22:07:14.298Z,48.60
2019-06-08T22:09:44.343Z,48.70
2019-06-08T22:12:14.385Z,49.10
2019-06-08T22:14:44.445Z,49.70
2019-06-08T22:17:16.023Z,49.40
2019-06-08T22:19:47.464Z,49.20
2019-06-08T22:22:18.699Z,48.90
2019-06-08T22:24:48.738Z,49.00
2019-06-08T22:27:18.791Z,49.00
2019-06-08T22:29:48.828Z,49.30
2019-06-08T22:32:18.872Z,49.50
2019-06-08T22:34:48.902Z,49.70
2019-06-08T22:37:19.971Z,50.10
2019-06-08T22:39:51.089Z,50.70
2019-06-08T22:42:21.565Z,50.50
2019-06-08T22:44:52.757Z,50.70
2019-06-08T22:47:22.918Z,50.80
2019-06-08T22:49:54.657Z,51.10
2019-06-08T22:52:27.201Z,51.40
2019-06-08T22:55:02.074Z,51.80
2019-06-08T22:57:28.831Z,51.50
2019-06-08T23:00:01.641Z,51.60
2019-06-08T23:02:30.623Z,51.60
2019-06-08T23:05:03.812Z,51.80
2019-06-08T23:07:32.926Z,52.20
2019-06-08T23:10:05.715Z,52.00
2019-06-08T23:12:38.200Z,51.80
2019-06-08T23:15:08.446Z,51.90
2019-06-08T23:17:39.143Z,51.90
2019-06-08T23:20:09.841Z,52.00
2019-06-08T23:22:39.885Z,52.20
2019-06-08T23:25:10.138Z,52.30
2019-06-08T23:27:40.167Z,52.10
2019-06-08T23:30:10.851Z,51.80
2019-06-08T23:32:41.025Z,52.10
2019-06-08T23:35:11.200Z,52.00
2019-06-08T23:37:41.244Z,52.50
2019-06-08T23:40:12.814Z,51.90
2019-06-08T23:42:42.845Z,51.90
2019-06-08T23:45:13.123Z,52.30
2019-06-08T23:47:43.521Z,52.20
2019-06-08T23:50:13.893Z,52.50
2019-06-08T23:52:43.956Z,52.70
2019-06-08T23:55:14.131Z,52.80
2019-06-08T23:57:44.618Z,53.00
